NKS270 MKJS-KFLL
Flight info
| Callsign | NKS270 |
|---|---|
| Flight time | N/A |
| Altitude | 36000 |
| Route | OTUNU UL417 BORDO OLAHS3 |
| Aircraft | A321/M-SDE3FGHIRWY/LB1 |
Departure
| Time | 2026-05-04 02:31 |
|---|---|
| Airport | Sangster International Airport (MKJS) |
Arrival
| Time | N/A |
|---|---|
| Airport | Fort Lauderdale Hollywood International Airport (KFLL) |
| Time | Latitude | Longitude | Altitude | Speed | Heading |
|---|---|---|---|---|---|
| 2026-05-04 02:07 | 18.50005 | -77.91368 | 10 ft | 0 kts | 186° |
| 2026-05-04 02:21 | 18.50020 | -77.91367 | 12 ft | 4 kts | 185° |
| 2026-05-04 02:22 | 18.50047 | -77.91365 | 13 ft | 4 kts | 184° |
| 2026-05-04 02:22 | 18.50069 | -77.91363 | 13 ft | 4 kts | 190° |
| 2026-05-04 02:22 | 18.50093 | -77.91354 | 13 ft | 4 kts | 219° |
| 2026-05-04 02:22 | 18.50108 | -77.91333 | 13 ft | 4 kts | 249° |
| 2026-05-04 02:23 | 18.50113 | -77.91307 | 10 ft | 4 kts | 289° |
| 2026-05-04 02:23 | 18.50098 | -77.91288 | 11 ft | 4 kts | 335° |
| 2026-05-04 02:23 | 18.50073 | -77.91277 | 12 ft | 3 kts | 336° |
| 2026-05-04 02:23 | 18.50049 | -77.91266 | 12 ft | 4 kts | 335° |
| 2026-05-04 02:24 | 18.50044 | -77.91264 | 10 ft | 0 kts | 335° |
| 2026-05-04 02:25 | 18.50045 | -77.91264 | 10 ft | 0 kts | 335° |
| 2026-05-04 02:25 | 18.50053 | -77.91268 | 10 ft | 3 kts | 335° |
| 2026-05-04 02:26 | 18.50089 | -77.91285 | 10 ft | 9 kts | 335° |
| 2026-05-04 02:26 | 18.50153 | -77.91316 | 10 ft | 11 kts | 332° |
| 2026-05-04 02:26 | 18.50155 | -77.91397 | 10 ft | 14 kts | 246° |
| 2026-05-04 02:26 | 18.50107 | -77.91509 | 12 ft | 18 kts | 245° |
| 2026-05-04 02:27 | 18.50054 | -77.91630 | 13 ft | 19 kts | 245° |
| 2026-05-04 02:27 | 18.50008 | -77.91746 | 11 ft | 17 kts | 246° |
| 2026-05-04 02:27 | 18.49958 | -77.91861 | 11 ft | 18 kts | 245° |
| 2026-05-04 02:27 | 18.49904 | -77.91983 | 12 ft | 19 kts | 245° |
| 2026-05-04 02:28 | 18.49846 | -77.92112 | 11 ft | 20 kts | 244° |
| 2026-05-04 02:28 | 18.49794 | -77.92228 | 11 ft | 15 kts | 245° |
| 2026-05-04 02:28 | 18.49757 | -77.92319 | 10 ft | 0 kts | 249° |
| 2026-05-04 02:29 | 18.49754 | -77.92327 | 10 ft | 4 kts | 249° |
| 2026-05-04 02:29 | 18.49749 | -77.92388 | 10 ft | 13 kts | 290° |
| 2026-05-04 02:29 | 18.49821 | -77.92436 | 11 ft | 11 kts | 337° |
| 2026-05-04 02:29 | 18.49891 | -77.92428 | 11 ft | 11 kts | 55° |
| 2026-05-04 02:30 | 18.49904 | -77.92401 | 13 ft | 0 kts | 64° |
| 2026-05-04 02:30 | 18.49907 | -77.92395 | 12 ft | 5 kts | 65° |
| 2026-05-04 02:30 | 18.50006 | -77.92166 | 13 ft | 77 kts | 65° |
| 2026-05-04 02:30 | 18.50349 | -77.91375 | 12 ft | 156 kts | 65° |
| 2026-05-04 02:31 | 18.50840 | -77.90241 | 679 ft | 169 kts | 66° |
| 2026-05-04 02:31 | 18.51356 | -77.89126 | 1634 ft | 174 kts | 56° |
| 2026-05-04 02:31 | 18.52148 | -77.88136 | 2534 ft | 176 kts | 50° |
| 2026-05-04 02:31 | 18.52939 | -77.87184 | 3555 ft | 170 kts | 50° |
| 2026-05-04 02:32 | 18.53709 | -77.86272 | 4546 ft | 163 kts | 50° |
| 2026-05-04 02:32 | 18.54472 | -77.85367 | 5279 ft | 173 kts | 50° |
| 2026-05-04 02:32 | 18.55281 | -77.84375 | 5598 ft | 187 kts | 51° |
| 2026-05-04 02:32 | 18.56256 | -77.83343 | 5725 ft | 211 kts | 39° |
| 2026-05-04 02:33 | 18.57602 | -77.82510 | 5875 ft | 239 kts | 24° |
| 2026-05-04 02:33 | 18.59291 | -77.82061 | 6140 ft | 264 kts | 6° |
| 2026-05-04 02:33 | 18.61166 | -77.82253 | 6669 ft | 278 kts | 347° |
| 2026-05-04 02:33 | 18.63032 | -77.82761 | 7315 ft | 282 kts | 347° |
| 2026-05-04 02:34 | 18.64322 | -77.83109 | 7777 ft | 285 kts | 347° |
| 2026-05-04 02:34 | 18.66887 | -77.83801 | 8690 ft | 290 kts | 347° |
| 2026-05-04 02:34 | 18.68855 | -77.84333 | 9374 ft | 294 kts | 346° |
| 2026-05-04 02:34 | 18.70199 | -77.84694 | 9835 ft | 296 kts | 346° |
| 2026-05-04 02:35 | 18.72225 | -77.85240 | 10239 ft | 310 kts | 346° |
| 2026-05-04 02:35 | 18.74393 | -77.85824 | 10376 ft | 332 kts | 347° |
| 2026-05-04 02:35 | 18.76695 | -77.86438 | 10654 ft | 347 kts | 347° |
| 2026-05-04 02:35 | 18.79056 | -77.87064 | 11194 ft | 352 kts | 347° |
| 2026-05-04 02:36 | 18.81444 | -77.87699 | 11793 ft | 355 kts | 346° |
| 2026-05-04 02:36 | 18.83849 | -77.88344 | 12405 ft | 358 kts | 346° |
| 2026-05-04 02:36 | 18.86273 | -77.88998 | 13013 ft | 361 kts | 346° |
| 2026-05-04 02:36 | 18.88717 | -77.89658 | 13618 ft | 364 kts | 346° |
| 2026-05-04 02:37 | 18.91177 | -77.90321 | 14168 ft | 367 kts | 346° |
| 2026-05-04 02:37 | 18.93660 | -77.90988 | 14673 ft | 370 kts | 345° |
| 2026-05-04 02:37 | 18.96169 | -77.91663 | 15172 ft | 374 kts | 345° |
| 2026-05-04 02:37 | 18.98704 | -77.92346 | 15675 ft | 378 kts | 345° |
| 2026-05-04 02:38 | 19.01264 | -77.93040 | 16161 ft | 382 kts | 345° |
| 2026-05-04 02:38 | 19.03846 | -77.93740 | 16650 ft | 385 kts | 345° |
| 2026-05-04 02:38 | 19.06458 | -77.94443 | 17148 ft | 389 kts | 345° |
| 2026-05-04 02:38 | 19.09095 | -77.95150 | 17622 ft | 393 kts | 345° |
| 2026-05-04 02:39 | 19.11751 | -77.95862 | 18133 ft | 395 kts | 345° |
| 2026-05-04 02:39 | 19.14430 | -77.96584 | 18577 ft | 399 kts | 345° |
| 2026-05-04 02:39 | 19.17160 | -77.97190 | 19019 ft | 402 kts | 352° |
| 2026-05-04 02:39 | 19.19957 | -77.97354 | 19470 ft | 405 kts | 357° |
| 2026-05-04 02:40 | 19.22786 | -77.97442 | 19921 ft | 407 kts | 357° |
| 2026-05-04 02:40 | 19.25625 | -77.97534 | 20381 ft | 409 kts | 357° |
| 2026-05-04 02:40 | 19.28484 | -77.97631 | 20835 ft | 412 kts | 357° |
| 2026-05-04 02:40 | 19.31353 | -77.97731 | 21276 ft | 414 kts | 356° |
| 2026-05-04 02:41 | 19.34244 | -77.97831 | 21731 ft | 417 kts | 356° |
| 2026-05-04 02:41 | 19.37154 | -77.97930 | 22149 ft | 419 kts | 356° |
| 2026-05-04 02:41 | 19.40080 | -77.98026 | 22569 ft | 422 kts | 356° |
| 2026-05-04 02:41 | 19.43020 | -77.98120 | 22989 ft | 424 kts | 356° |
| 2026-05-04 02:42 | 19.45976 | -77.98215 | 23385 ft | 426 kts | 356° |
| 2026-05-04 02:42 | 19.48953 | -77.98309 | 23745 ft | 429 kts | 356° |
| 2026-05-04 02:42 | 19.51943 | -77.98408 | 24061 ft | 431 kts | 356° |
| 2026-05-04 02:42 | 19.54950 | -77.98508 | 24379 ft | 433 kts | 356° |
| 2026-05-04 02:43 | 19.57966 | -77.98603 | 24692 ft | 435 kts | 356° |
| 2026-05-04 02:43 | 19.61002 | -77.98698 | 25005 ft | 437 kts | 356° |
| 2026-05-04 02:43 | 19.64049 | -77.98798 | 25314 ft | 439 kts | 356° |
| 2026-05-04 02:43 | 19.67115 | -77.98903 | 25625 ft | 441 kts | 355° |
| 2026-05-04 02:44 | 19.70192 | -77.99009 | 25936 ft | 444 kts | 355° |
| 2026-05-04 02:44 | 19.73285 | -77.99111 | 26241 ft | 446 kts | 355° |
| 2026-05-04 02:44 | 19.76392 | -77.99213 | 26553 ft | 448 kts | 355° |
| 2026-05-04 02:44 | 19.79512 | -77.99320 | 26854 ft | 450 kts | 355° |
| 2026-05-04 02:45 | 19.82650 | -77.99426 | 27152 ft | 452 kts | 355° |
| 2026-05-04 02:45 | 19.85797 | -77.99534 | 27453 ft | 454 kts | 355° |
| 2026-05-04 02:45 | 19.88957 | -77.99640 | 27749 ft | 456 kts | 355° |
| 2026-05-04 02:45 | 19.92147 | -77.99745 | 28046 ft | 459 kts | 355° |
| 2026-05-04 02:46 | 19.95344 | -77.99851 | 28343 ft | 461 kts | 355° |
| 2026-05-04 02:46 | 19.98554 | -77.99957 | 28631 ft | 463 kts | 355° |
| 2026-05-04 02:46 | 20.01780 | -78.00062 | 28913 ft | 465 kts | 355° |
| 2026-05-04 02:46 | 20.05022 | -78.00168 | 29192 ft | 467 kts | 355° |
| 2026-05-04 02:47 | 20.08272 | -78.00274 | 29488 ft | 469 kts | 355° |
| 2026-05-04 02:47 | 20.11542 | -78.00379 | 29770 ft | 471 kts | 354° |
| 2026-05-04 02:47 | 20.14819 | -78.00484 | 30049 ft | 473 kts | 354° |
| 2026-05-04 02:47 | 20.18117 | -78.00589 | 30297 ft | 475 kts | 354° |
| 2026-05-04 02:48 | 20.21416 | -78.00696 | 30555 ft | 476 kts | 354° |
| 2026-05-04 02:48 | 20.24741 | -78.00806 | 30818 ft | 478 kts | 354° |
| 2026-05-04 02:48 | 20.28063 | -78.00916 | 31083 ft | 478 kts | 354° |
| 2026-05-04 02:48 | 20.31386 | -78.01028 | 31440 ft | 477 kts | 354° |
| 2026-05-04 02:49 | 20.34687 | -78.01140 | 31829 ft | 475 kts | 354° |
| 2026-05-04 02:49 | 20.37993 | -78.01251 | 32199 ft | 473 kts | 354° |
| 2026-05-04 02:49 | 20.41276 | -78.01361 | 32579 ft | 472 kts | 354° |
| 2026-05-04 02:49 | 20.44548 | -78.01470 | 32955 ft | 470 kts | 354° |
| 2026-05-04 02:50 | 20.47811 | -78.01579 | 33325 ft | 468 kts | 354° |
| 2026-05-04 02:50 | 20.51062 | -78.01689 | 33705 ft | 467 kts | 354° |
| 2026-05-04 02:50 | 20.54303 | -78.01797 | 34059 ft | 465 kts | 354° |
| 2026-05-04 02:50 | 20.57537 | -78.01902 | 34373 ft | 464 kts | 354° |
| 2026-05-04 02:51 | 20.60757 | -78.02008 | 34672 ft | 463 kts | 353° |
| 2026-05-04 02:51 | 20.63975 | -78.02117 | 34972 ft | 462 kts | 353° |
| 2026-05-04 02:51 | 20.67187 | -78.02228 | 35267 ft | 461 kts | 353° |
| 2026-05-04 02:51 | 20.70390 | -78.02339 | 35565 ft | 460 kts | 353° |
| 2026-05-04 02:52 | 20.73586 | -78.02448 | 35875 ft | 460 kts | 353° |
| 2026-05-04 02:52 | 20.76789 | -78.02555 | 36040 ft | 460 kts | 353° |
| 2026-05-04 02:52 | 20.83119 | -78.02756 | 36069 ft | 452 kts | 353° |
| 2026-05-04 02:53 | 20.89398 | -78.02963 | 36073 ft | 451 kts | 353° |
| 2026-05-04 02:53 | 20.95671 | -78.03175 | 36073 ft | 451 kts | 353° |
| 2026-05-04 02:54 | 21.01949 | -78.03388 | 36079 ft | 451 kts | 352° |
| 2026-05-04 02:54 | 21.08224 | -78.03606 | 36082 ft | 451 kts | 352° |
| 2026-05-04 02:55 | 21.17642 | -78.03927 | 36088 ft | 452 kts | 353° |
| 2026-05-04 02:56 | 21.23925 | -78.04130 | 36089 ft | 452 kts | 353° |
| 2026-05-04 02:56 | 21.30205 | -78.04341 | 36092 ft | 451 kts | 353° |
| 2026-05-04 02:57 | 21.36482 | -78.04554 | 36104 ft | 451 kts | 352° |
| 2026-05-04 02:57 | 21.42757 | -78.04765 | 36104 ft | 451 kts | 352° |
| 2026-05-04 02:58 | 21.49036 | -78.04976 | 36100 ft | 451 kts | 352° |
| 2026-05-04 02:58 | 21.55313 | -78.05191 | 36097 ft | 451 kts | 352° |
| 2026-05-04 02:59 | 21.61590 | -78.05405 | 36092 ft | 451 kts | 352° |
| 2026-05-04 02:59 | 21.67869 | -78.05614 | 36091 ft | 452 kts | 352° |
| 2026-05-04 03:00 | 21.74149 | -78.05823 | 36103 ft | 451 kts | 352° |
| 2026-05-04 03:00 | 21.80427 | -78.06043 | 36093 ft | 451 kts | 352° |
| 2026-05-04 03:01 | 21.86696 | -78.06257 | 36091 ft | 451 kts | 352° |
| 2026-05-04 03:01 | 21.92971 | -78.06469 | 36089 ft | 451 kts | 352° |
| 2026-05-04 03:02 | 21.99249 | -78.06685 | 36088 ft | 451 kts | 352° |
| 2026-05-04 03:02 | 22.05520 | -78.06900 | 36099 ft | 451 kts | 352° |
| 2026-05-04 03:03 | 22.11796 | -78.07115 | 36092 ft | 451 kts | 352° |
| 2026-05-04 03:03 | 22.18068 | -78.07332 | 36087 ft | 451 kts | 352° |
| 2026-05-04 03:04 | 22.24334 | -78.07548 | 36088 ft | 451 kts | 352° |
| 2026-05-04 03:04 | 22.30610 | -78.07759 | 36084 ft | 451 kts | 352° |
| 2026-05-04 03:05 | 22.36881 | -78.07971 | 36100 ft | 451 kts | 351° |
| 2026-05-04 03:05 | 22.43160 | -78.08188 | 36092 ft | 452 kts | 351° |
| 2026-05-04 03:06 | 22.49447 | -78.08408 | 36090 ft | 452 kts | 351° |
| 2026-05-04 03:06 | 22.55740 | -78.08621 | 36082 ft | 452 kts | 351° |
| 2026-05-04 03:07 | 22.62029 | -78.08837 | 36083 ft | 452 kts | 351° |
| 2026-05-04 03:07 | 22.68277 | -78.09051 | 36096 ft | 452 kts | 351° |
| 2026-05-04 03:08 | 22.74605 | -78.09262 | 36091 ft | 452 kts | 351° |
| 2026-05-04 03:08 | 22.80737 | -78.09987 | 36087 ft | 439 kts | 338° |
| 2026-05-04 03:09 | 22.86608 | -78.11747 | 36081 ft | 438 kts | 338° |
| 2026-05-04 03:09 | 22.92485 | -78.13499 | 36074 ft | 438 kts | 338° |
| 2026-05-04 03:10 | 22.98365 | -78.15250 | 36095 ft | 438 kts | 338° |
| 2026-05-04 03:10 | 23.04255 | -78.17012 | 36084 ft | 439 kts | 338° |
| 2026-05-04 03:11 | 23.10148 | -78.18776 | 36074 ft | 440 kts | 338° |
| 2026-05-04 03:11 | 23.16038 | -78.20546 | 36072 ft | 440 kts | 337° |
| 2026-05-04 03:12 | 23.21944 | -78.22319 | 36071 ft | 440 kts | 338° |
| 2026-05-04 03:12 | 23.27843 | -78.24087 | 36067 ft | 440 kts | 338° |
| 2026-05-04 03:13 | 23.33752 | -78.25862 | 36096 ft | 441 kts | 337° |
| 2026-05-04 03:13 | 23.39665 | -78.27643 | 36084 ft | 442 kts | 337° |
| 2026-05-04 03:14 | 23.45594 | -78.29432 | 36067 ft | 442 kts | 337° |
| 2026-05-04 03:14 | 23.51532 | -78.31216 | 36066 ft | 443 kts | 337° |
| 2026-05-04 03:15 | 23.57473 | -78.33002 | 36063 ft | 442 kts | 337° |
| 2026-05-04 03:15 | 23.63408 | -78.34797 | 36091 ft | 443 kts | 337° |
| 2026-05-04 03:16 | 23.69351 | -78.36591 | 36070 ft | 443 kts | 337° |
| 2026-05-04 03:16 | 23.75301 | -78.38389 | 36064 ft | 444 kts | 337° |
| 2026-05-04 03:17 | 23.80252 | -78.39889 | 36062 ft | 444 kts | 337° |
| 2026-05-04 03:17 | 23.86214 | -78.41701 | 36063 ft | 445 kts | 336° |
| 2026-05-04 03:18 | 23.92181 | -78.43515 | 36066 ft | 445 kts | 336° |
| 2026-05-04 03:18 | 23.98152 | -78.45318 | 36084 ft | 448 kts | 339° |
| 2026-05-04 03:18 | 24.01268 | -78.45852 | 36076 ft | 459 kts | 349° |
| 2026-05-04 03:19 | 24.04474 | -78.45880 | 36078 ft | 462 kts | 353° |
| 2026-05-04 03:19 | 24.10874 | -78.45811 | 36069 ft | 458 kts | 352° |
| 2026-05-04 03:20 | 24.17246 | -78.45765 | 36018 ft | 457 kts | 352° |
| 2026-05-04 03:20 | 24.20426 | -78.45747 | 35808 ft | 458 kts | 352° |
| 2026-05-04 03:20 | 24.23610 | -78.45731 | 35292 ft | 457 kts | 353° |
| 2026-05-04 03:20 | 24.26781 | -78.45712 | 34834 ft | 455 kts | 353° |
| 2026-05-04 03:21 | 24.29939 | -78.45690 | 34393 ft | 453 kts | 353° |
| 2026-05-04 03:21 | 24.33039 | -78.45668 | 33956 ft | 450 kts | 353° |
| 2026-05-04 03:21 | 24.36161 | -78.45649 | 33478 ft | 447 kts | 353° |
| 2026-05-04 03:21 | 24.39263 | -78.45636 | 33004 ft | 444 kts | 353° |
| 2026-05-04 03:22 | 24.42337 | -78.45625 | 32547 ft | 440 kts | 353° |
| 2026-05-04 03:22 | 24.45393 | -78.45619 | 32107 ft | 437 kts | 353° |
| 2026-05-04 03:22 | 24.48423 | -78.45617 | 31669 ft | 434 kts | 353° |
| 2026-05-04 03:22 | 24.51428 | -78.45615 | 31240 ft | 431 kts | 353° |
| 2026-05-04 03:23 | 24.54415 | -78.45610 | 30823 ft | 428 kts | 353° |
| 2026-05-04 03:23 | 24.57379 | -78.45602 | 30424 ft | 425 kts | 353° |
| 2026-05-04 03:23 | 24.60331 | -78.45592 | 29955 ft | 424 kts | 354° |
| 2026-05-04 03:23 | 24.63266 | -78.45580 | 29482 ft | 421 kts | 354° |
| 2026-05-04 03:24 | 24.66188 | -78.45569 | 29036 ft | 418 kts | 353° |
| 2026-05-04 03:24 | 24.69085 | -78.45558 | 28617 ft | 415 kts | 353° |
| 2026-05-04 03:24 | 24.71965 | -78.45549 | 28214 ft | 412 kts | 353° |
| 2026-05-04 03:24 | 24.74818 | -78.45541 | 27821 ft | 409 kts | 353° |
| 2026-05-04 03:25 | 24.77652 | -78.45535 | 27439 ft | 406 kts | 353° |
| 2026-05-04 03:25 | 24.80468 | -78.45528 | 27067 ft | 403 kts | 353° |
| 2026-05-04 03:25 | 24.83297 | -78.45524 | 26677 ft | 400 kts | 353° |
| 2026-05-04 03:25 | 24.86068 | -78.45521 | 26292 ft | 397 kts | 353° |
| 2026-05-04 03:26 | 24.88826 | -78.45517 | 25923 ft | 394 kts | 353° |
| 2026-05-04 03:26 | 24.91565 | -78.45525 | 25495 ft | 393 kts | 353° |
| 2026-05-04 03:26 | 24.94291 | -78.45540 | 25103 ft | 391 kts | 353° |
| 2026-05-04 03:26 | 24.97004 | -78.45556 | 24722 ft | 388 kts | 353° |
| 2026-05-04 03:27 | 24.99695 | -78.45573 | 24340 ft | 386 kts | 353° |
| 2026-05-04 03:27 | 25.02370 | -78.45589 | 23966 ft | 383 kts | 353° |
| 2026-05-04 03:27 | 25.05025 | -78.45604 | 23578 ft | 380 kts | 352° |
| 2026-05-04 03:27 | 25.07628 | -78.45619 | 23137 ft | 378 kts | 353° |
| 2026-05-04 03:28 | 25.10281 | -78.45633 | 22692 ft | 375 kts | 353° |
| 2026-05-04 03:28 | 25.12850 | -78.45645 | 22264 ft | 373 kts | 353° |
| 2026-05-04 03:28 | 25.15441 | -78.45657 | 21820 ft | 371 kts | 353° |
| 2026-05-04 03:28 | 25.18014 | -78.45668 | 21392 ft | 369 kts | 353° |
| 2026-05-04 03:29 | 25.20572 | -78.45682 | 20987 ft | 366 kts | 353° |
| 2026-05-04 03:29 | 25.23110 | -78.45697 | 20576 ft | 364 kts | 353° |
| 2026-05-04 03:29 | 25.25632 | -78.45710 | 20162 ft | 362 kts | 353° |
| 2026-05-04 03:29 | 25.28140 | -78.45722 | 19754 ft | 359 kts | 353° |
| 2026-05-04 03:30 | 25.30633 | -78.45732 | 19359 ft | 357 kts | 353° |
| 2026-05-04 03:30 | 25.33113 | -78.45744 | 18964 ft | 355 kts | 353° |
| 2026-05-04 03:30 | 25.35579 | -78.45757 | 18577 ft | 353 kts | 353° |
| 2026-05-04 03:30 | 25.38023 | -78.45829 | 18168 ft | 347 kts | 345° |
| 2026-05-04 03:31 | 25.40217 | -78.46665 | 17735 ft | 327 kts | 321° |
| 2026-05-04 03:31 | 25.41822 | -78.48329 | 17294 ft | 311 kts | 298° |
| 2026-05-04 03:31 | 25.42773 | -78.50435 | 16821 ft | 305 kts | 289° |
| 2026-05-04 03:31 | 25.43604 | -78.52596 | 16363 ft | 305 kts | 289° |
| 2026-05-04 03:32 | 25.44425 | -78.54755 | 15938 ft | 304 kts | 288° |
| 2026-05-04 03:32 | 25.45244 | -78.56910 | 15522 ft | 303 kts | 289° |
| 2026-05-04 03:32 | 25.46063 | -78.59057 | 15112 ft | 303 kts | 289° |
| 2026-05-04 03:32 | 25.46882 | -78.61197 | 14708 ft | 302 kts | 289° |
| 2026-05-04 03:33 | 25.47700 | -78.63330 | 14322 ft | 301 kts | 289° |
| 2026-05-04 03:33 | 25.48516 | -78.65458 | 13942 ft | 300 kts | 289° |
| 2026-05-04 03:33 | 25.49328 | -78.67580 | 13527 ft | 299 kts | 289° |
| 2026-05-04 03:33 | 25.50135 | -78.69689 | 13121 ft | 297 kts | 289° |
| 2026-05-04 03:34 | 25.50942 | -78.71796 | 12714 ft | 296 kts | 289° |
| 2026-05-04 03:34 | 25.51742 | -78.73886 | 12339 ft | 294 kts | 289° |
| 2026-05-04 03:34 | 25.52536 | -78.75959 | 11975 ft | 292 kts | 289° |
| 2026-05-04 03:34 | 25.53325 | -78.78020 | 11594 ft | 290 kts | 289° |
| 2026-05-04 03:35 | 25.54106 | -78.80071 | 11219 ft | 289 kts | 290° |
| 2026-05-04 03:35 | 25.54887 | -78.82115 | 10845 ft | 287 kts | 290° |
| 2026-05-04 03:35 | 25.55663 | -78.84149 | 10481 ft | 286 kts | 290° |
| 2026-05-04 03:35 | 25.56436 | -78.86173 | 10121 ft | 285 kts | 290° |
| 2026-05-04 03:36 | 25.57193 | -78.88162 | 9758 ft | 284 kts | 290° |
| 2026-05-04 03:36 | 25.57966 | -78.90196 | 9339 ft | 282 kts | 290° |
| 2026-05-04 03:36 | 25.58725 | -78.92194 | 8963 ft | 281 kts | 290° |
| 2026-05-04 03:36 | 25.59483 | -78.94187 | 8586 ft | 280 kts | 290° |
| 2026-05-04 03:37 | 25.60236 | -78.96166 | 8214 ft | 278 kts | 290° |
| 2026-05-04 03:37 | 25.60984 | -78.98135 | 7853 ft | 277 kts | 290° |
| 2026-05-04 03:37 | 25.61729 | -79.00099 | 7492 ft | 276 kts | 290° |
| 2026-05-04 03:37 | 25.62473 | -79.02054 | 7131 ft | 275 kts | 290° |
| 2026-05-04 03:38 | 25.63203 | -79.03976 | 6780 ft | 273 kts | 290° |
| 2026-05-04 03:38 | 25.63935 | -79.05916 | 6437 ft | 272 kts | 290° |
| 2026-05-04 03:38 | 25.64660 | -79.07848 | 6070 ft | 271 kts | 290° |
| 2026-05-04 03:38 | 25.65377 | -79.09754 | 5981 ft | 266 kts | 290° |
| 2026-05-04 03:39 | 25.66089 | -79.11650 | 5990 ft | 267 kts | 290° |
| 2026-05-04 03:39 | 25.66801 | -79.13550 | 5990 ft | 267 kts | 290° |
| 2026-05-04 03:39 | 25.67521 | -79.15476 | 5989 ft | 267 kts | 290° |
| 2026-05-04 03:39 | 25.68225 | -79.17353 | 5990 ft | 267 kts | 290° |
| 2026-05-04 03:40 | 25.68940 | -79.19256 | 5991 ft | 267 kts | 290° |
| 2026-05-04 03:40 | 25.69655 | -79.21156 | 5992 ft | 267 kts | 290° |
| 2026-05-04 03:40 | 25.70374 | -79.23076 | 5998 ft | 278 kts | 290° |
| 2026-05-04 03:40 | 25.71141 | -79.25138 | 5993 ft | 296 kts | 290° |
| 2026-05-04 03:41 | 25.71934 | -79.27263 | 5989 ft | 299 kts | 290° |
| 2026-05-04 03:41 | 25.72733 | -79.29398 | 5992 ft | 300 kts | 290° |
| 2026-05-04 03:41 | 25.73531 | -79.31541 | 5992 ft | 301 kts | 290° |
| 2026-05-04 03:41 | 25.74321 | -79.33686 | 5992 ft | 300 kts | 290° |
| 2026-05-04 03:42 | 25.75107 | -79.35835 | 5991 ft | 300 kts | 290° |
| 2026-05-04 03:42 | 25.75891 | -79.37979 | 5992 ft | 300 kts | 290° |
| 2026-05-04 03:42 | 25.76674 | -79.40121 | 5992 ft | 300 kts | 290° |
| 2026-05-04 03:42 | 25.77458 | -79.42264 | 5993 ft | 300 kts | 290° |
| 2026-05-04 03:43 | 25.78242 | -79.44406 | 5998 ft | 300 kts | 290° |
| 2026-05-04 03:43 | 25.79027 | -79.46549 | 5996 ft | 300 kts | 290° |
| 2026-05-04 03:43 | 25.79812 | -79.48694 | 5995 ft | 300 kts | 290° |
| 2026-05-04 03:43 | 25.80599 | -79.50842 | 5995 ft | 300 kts | 290° |
| 2026-05-04 03:44 | 25.81383 | -79.52983 | 5993 ft | 300 kts | 290° |
| 2026-05-04 03:44 | 25.82167 | -79.55127 | 5995 ft | 300 kts | 290° |
| 2026-05-04 03:44 | 25.82950 | -79.57272 | 5995 ft | 300 kts | 290° |
| 2026-05-04 03:44 | 25.83729 | -79.59408 | 5992 ft | 295 kts | 290° |
| 2026-05-04 03:45 | 25.84480 | -79.61453 | 5991 ft | 277 kts | 290° |
| 2026-05-04 03:45 | 25.85202 | -79.63371 | 5991 ft | 261 kts | 290° |
| 2026-05-04 03:45 | 25.85896 | -79.65170 | 5992 ft | 248 kts | 291° |
| 2026-05-04 03:45 | 25.86619 | -79.66892 | 5995 ft | 246 kts | 292° |
| 2026-05-04 03:46 | 25.87361 | -79.68602 | 5995 ft | 246 kts | 293° |